sensor_id;sensor_type;location;lat;lon;timestamp;temperature;humidity
62363;DHT22;48396;48.426;1.500;2023-04-01T00:01:55;12.30;99.90
62363;DHT22;48396;48.426;1.500;2023-04-01T00:04:20;12.30;99.90
62363;DHT22;48396;48.426;1.500;2023-04-01T00:06:46;12.40;99.90
62363;DHT22;48396;48.426;1.500;2023-04-01T00:09:13;12.30;99.90
62363;DHT22;48396;48.426;1.500;2023-04-01T00:11:39;12.30;99.90
62363;DHT22;48396;48.426;1.500;2023-04-01T00:14:05;12.40;99.90
62363;DHT22;48396;48.426;1.500;2023-04-01T00:16:31;12.30;99.90
62363;DHT22;48396;48.426;1.500;2023-04-01T00:18:56;12.40;99.90
62363;DHT22;48396;48.426;1.500;2023-04-01T00:21:22;12.40;99.90
62363;DHT22;48396;48.426;1.500;2023-04-01T00:23:49;12.40;99.90
62363;DHT22;48396;48.426;1.500;2023-04-01T00:26:15;12.30;99.90
62363;DHT22;48396;48.426;1.500;2023-04-01T00:28:44;12.30;99.90
62363;DHT22;48396;48.426;1.500;2023-04-01T00:31:10;12.30;99.90
62363;DHT22;48396;48.426;1.500;2023-04-01T00:33:37;12.30;99.90
62363;DHT22;48396;48.426;1.500;2023-04-01T00:36:11;12.30;99.90
62363;DHT22;48396;48.426;1.500;2023-04-01T00:38:37;12.30;99.90
62363;DHT22;48396;48.426;1.500;2023-04-01T00:41:03;12.30;99.90
62363;DHT22;48396;48.426;1.500;2023-04-01T00:43:29;12.40;99.90
62363;DHT22;48396;48.426;1.500;2023-04-01T00:45:55;12.40;99.90
62363;DHT22;48396;48.426;1.500;2023-04-01T00:48:28;12.40;99.90
62363;DHT22;48396;48.426;1.500;2023-04-01T00:51:01;12.30;99.90
62363;DHT22;48396;48.426;1.500;2023-04-01T00:53:28;12.40;99.90
62363;DHT22;48396;48.426;1.500;2023-04-01T00:56:04;12.30;99.90
62363;DHT22;48396;48.426;1.500;2023-04-01T00:58:34;12.30;99.90
62363;DHT22;48396;48.426;1.500;2023-04-01T01:01:01;12.30;99.90
62363;DHT22;48396;48.426;1.500;2023-04-01T01:03:27;12.20;99.90
62363;DHT22;48396;48.426;1.500;2023-04-01T01:11:15;12.30;99.90
62363;DHT22;48396;48.426;1.500;2023-04-01T01:13:57;12.30;99.90
62363;DHT22;48396;48.426;1.500;2023-04-01T01:16:30;12.30;99.90
62363;DHT22;48396;48.426;1.500;2023-04-01T01:22:38;12.30;99.90
62363;DHT22;48396;48.426;1.500;2023-04-01T01:27:34;12.30;99.90
62363;DHT22;48396;48.426;1.500;2023-04-01T01:35:54;12.40;99.90
62363;DHT22;48396;48.426;1.500;2023-04-01T01:38:25;12.30;99.90
62363;DHT22;48396;48.426;1.500;2023-04-01T01:40:52;12.30;99.90
62363;DHT22;48396;48.426;1.500;2023-04-01T01:43:24;12.30;99.90
62363;DHT22;48396;48.426;1.500;2023-04-01T01:45:54;12.40;99.90
62363;DHT22;48396;48.426;1.500;2023-04-01T01:48:22;12.30;99.90
62363;DHT22;48396;48.426;1.500;2023-04-01T01:50:48;12.20;99.90
62363;DHT22;48396;48.426;1.500;2023-04-01T01:53:15;12.20;99.90
62363;DHT22;48396;48.426;1.500;2023-04-01T01:55:44;12.20;99.90
62363;DHT22;48396;48.426;1.500;2023-04-01T01:58:22;12.30;99.90
62363;DHT22;48396;48.426;1.500;2023-04-01T02:00:57;12.20;99.90
62363;DHT22;48396;48.426;1.500;2023-04-01T02:03:25;12.20;99.90
62363;DHT22;48396;48.426;1.500;2023-04-01T02:05:54;12.20;99.90
62363;DHT22;48396;48.426;1.500;2023-04-01T02:08:38;12.20;99.90
62363;DHT22;48396;48.426;1.500;2023-04-01T02:11:11;12.10;99.90
62363;DHT22;48396;48.426;1.500;2023-04-01T02:13:41;12.10;99.90
62363;DHT22;48396;48.426;1.500;2023-04-01T02:16:22;12.20;99.90
62363;DHT22;48396;48.426;1.500;2023-04-01T02:18:50;12.10;99.90
62363;DHT22;48396;48.426;1.500;2023-04-01T02:21:20;12.00;99.90
62363;DHT22;48396;48.426;1.500;2023-04-01T02:23:47;12.00;99.90
62363;DHT22;48396;48.426;1.500;2023-04-01T02:26:13;12.00;99.90
62363;DHT22;48396;48.426;1.500;2023-04-01T02:28:40;12.00;99.90
62363;DHT22;48396;48.426;1.500;2023-04-01T02:31:08;12.00;99.90
62363;DHT22;48396;48.426;1.500;2023-04-01T02:33:34;12.00;99.90
62363;DHT22;48396;48.426;1.500;2023-04-01T02:36:00;12.00;99.90
62363;DHT22;48396;48.426;1.500;2023-04-01T02:38:25;12.10;99.90
62363;DHT22;48396;48.426;1.500;2023-04-01T02:40:58;12.20;99.90
62363;DHT22;48396;48.426;1.500;2023-04-01T02:43:24;12.10;99.90
62363;DHT22;48396;48.426;1.500;2023-04-01T02:45:50;12.20;99.90
62363;DHT22;48396;48.426;1.500;2023-04-01T02:48:15;12.10;99.90
62363;DHT22;48396;48.426;1.500;2023-04-01T02:50:41;12.10;99.90
62363;DHT22;48396;48.426;1.500;2023-04-01T02:53:06;12.10;99.90
62363;DHT22;48396;48.426;1.500;2023-04-01T02:55:33;12.10;99.90
62363;DHT22;48396;48.426;1.500;2023-04-01T02:57:59;12.10;99.90
62363;DHT22;48396;48.426;1.500;2023-04-01T03:00:25;12.10;99.90
62363;DHT22;48396;48.426;1.500;2023-04-01T03:02:51;12.10;99.90
62363;DHT22;48396;48.426;1.500;2023-04-01T03:05:17;12.10;99.90
62363;DHT22;48396;48.426;1.500;2023-04-01T03:07:43;12.10;99.90
62363;DHT22;48396;48.426;1.500;2023-04-01T03:10:09;12.10;99.90
62363;DHT22;48396;48.426;1.500;2023-04-01T03:12:35;12.20;99.90
62363;DHT22;48396;48.426;1.500;2023-04-01T03:15:00;12.10;99.90
62363;DHT22;48396;48.426;1.500;2023-04-01T03:17:26;12.10;99.90
62363;DHT22;48396;48.426;1.500;2023-04-01T03:19:52;12.10;99.90
62363;DHT22;48396;48.426;1.500;2023-04-01T03:22:17;12.00;99.90
62363;DHT22;48396;48.426;1.500;2023-04-01T03:24:47;12.10;99.90
62363;DHT22;48396;48.426;1.500;2023-04-01T03:27:12;12.10;99.90
62363;DHT22;48396;48.426;1.500;2023-04-01T03:29:38;12.10;99.90
62363;DHT22;48396;48.426;1.500;2023-04-01T03:32:04;12.00;99.90
62363;DHT22;48396;48.426;1.500;2023-04-01T03:34:30;12.00;99.90
62363;DHT22;48396;48.426;1.500;2023-04-01T03:36:55;12.10;99.90
62363;DHT22;48396;48.426;1.500;2023-04-01T03:39:21;12.10;99.90
62363;DHT22;48396;48.426;1.500;2023-04-01T03:41:47;12.00;99.90
62363;DHT22;48396;48.426;1.500;2023-04-01T03:44:13;12.00;99.90
62363;DHT22;48396;48.426;1.500;2023-04-01T03:46:39;12.00;99.90
62363;DHT22;48396;48.426;1.500;2023-04-01T03:49:10;12.00;99.90
62363;DHT22;48396;48.426;1.500;2023-04-01T03:51:40;12.00;99.90
62363;DHT22;48396;48.426;1.500;2023-04-01T03:54:06;12.10;99.90
62363;DHT22;48396;48.426;1.500;2023-04-01T03:56:32;12.10;99.90
62363;DHT22;48396;48.426;1.500;2023-04-01T03:58:58;12.10;99.90
62363;DHT22;48396;48.426;1.500;2023-04-01T04:01:24;12.00;99.90
62363;DHT22;48396;48.426;1.500;2023-04-01T04:03:50;12.00;99.90
62363;DHT22;48396;48.426;1.500;2023-04-01T04:06:17;12.00;99.90
62363;DHT22;48396;48.426;1.500;2023-04-01T04:08:44;12.00;99.90
62363;DHT22;48396;48.426;1.500;2023-04-01T04:11:09;11.90;99.90
62363;DHT22;48396;48.426;1.500;2023-04-01T04:13:35;11.90;99.90
62363;DHT22;48396;48.426;1.500;2023-04-01T04:16:02;11.90;99.90
62363;DHT22;48396;48.426;1.500;2023-04-01T04:18:27;12.10;99.90
62363;DHT22;48396;48.426;1.500;2023-04-01T04:20:53;12.00;99.90
62363;DHT22;48396;48.426;1.500;2023-04-01T04:23:19;12.00;99.90
62363;DHT22;48396;48.426;1.500;2023-04-01T04:25:55;12.00;99.90
62363;DHT22;48396;48.426;1.500;2023-04-01T04:28:21;11.90;99.90
62363;DHT22;48396;48.426;1.500;2023-04-01T04:30:47;12.00;99.90
62363;DHT22;48396;48.426;1.500;2023-04-01T04:33:12;12.00;99.90
62363;DHT22;48396;48.426;1.500;2023-04-01T04:35:38;11.90;99.90
62363;DHT22;48396;48.426;1.500;2023-04-01T04:38:03;11.90;99.90
62363;DHT22;48396;48.426;1.500;2023-04-01T04:40:29;11.90;99.90
62363;DHT22;48396;48.426;1.500;2023-04-01T04:42:55;12.00;99.90
62363;DHT22;48396;48.426;1.500;2023-04-01T04:45:20;12.00;99.90
62363;DHT22;48396;48.426;1.500;2023-04-01T04:47:46;11.90;99.90
62363;DHT22;48396;48.426;1.500;2023-04-01T04:50:11;11.90;99.90
62363;DHT22;48396;48.426;1.500;2023-04-01T04:52:37;11.90;99.90
62363;DHT22;48396;48.426;1.500;2023-04-01T04:55:02;11.90;99.90
62363;DHT22;48396;48.426;1.500;2023-04-01T04:57:28;11.80;99.90
62363;DHT22;48396;48.426;1.500;2023-04-01T04:59:54;11.70;99.90
62363;DHT22;48396;48.426;1.500;2023-04-01T05:02:19;11.80;99.90
62363;DHT22;48396;48.426;1.500;2023-04-01T05:04:45;11.80;99.90
62363;DHT22;48396;48.426;1.500;2023-04-01T05:07:10;11.90;99.90
62363;DHT22;48396;48.426;1.500;2023-04-01T05:09:36;11.90;99.90
62363;DHT22;48396;48.426;1.500;2023-04-01T05:12:02;11.90;99.90
62363;DHT22;48396;48.426;1.500;2023-04-01T05:14:27;11.80;99.90
62363;DHT22;48396;48.426;1.500;2023-04-01T05:16:53;11.80;99.90
62363;DHT22;48396;48.426;1.500;2023-04-01T05:19:19;11.80;99.90
62363;DHT22;48396;48.426;1.500;2023-04-01T05:21:45;11.80;99.90
62363;DHT22;48396;48.426;1.500;2023-04-01T05:24:11;11.80;99.90
62363;DHT22;48396;48.426;1.500;2023-04-01T05:26:36;11.80;99.90
62363;DHT22;48396;48.426;1.500;2023-04-01T05:29:03;11.80;99.90
62363;DHT22;48396;48.426;1.500;2023-04-01T05:31:29;11.70;99.90
62363;DHT22;48396;48.426;1.500;2023-04-01T05:33:55;11.80;99.90
62363;DHT22;48396;48.426;1.500;2023-04-01T05:36:21;11.80;99.90
62363;DHT22;48396;48.426;1.500;2023-04-01T05:38:47;11.80;99.90
62363;DHT22;48396;48.426;1.500;2023-04-01T05:41:14;11.70;99.90
62363;DHT22;48396;48.426;1.500;2023-04-01T05:43:40;11.80;99.90
62363;DHT22;48396;48.426;1.500;2023-04-01T05:46:06;11.80;99.90
62363;DHT22;48396;48.426;1.500;2023-04-01T05:48:33;11.90;99.90
62363;DHT22;48396;48.426;1.500;2023-04-01T05:50:59;11.90;99.90
62363;DHT22;48396;48.426;1.500;2023-04-01T05:53:24;11.80;99.90
62363;DHT22;48396;48.426;1.500;2023-04-01T05:55:50;11.70;99.90
62363;DHT22;48396;48.426;1.500;2023-04-01T05:58:16;11.70;99.90
62363;DHT22;48396;48.426;1.500;2023-04-01T06:00:41;11.70;99.90
62363;DHT22;48396;48.426;1.500;2023-04-01T06:03:07;11.70;99.90
62363;DHT22;48396;48.426;1.500;2023-04-01T06:05:42;11.60;99.90
62363;DHT22;48396;48.426;1.500;2023-04-01T06:08:13;11.70;99.90
62363;DHT22;48396;48.426;1.500;2023-04-01T06:19:41;11.80;99.90
62363;DHT22;48396;48.426;1.500;2023-04-01T06:25:09;11.80;99.90
62363;DHT22;48396;48.426;1.500;2023-04-01T06:27:56;11.90;99.90
62363;DHT22;48396;48.426;1.500;2023-04-01T06:30:38;11.90;99.90
62363;DHT22;48396;48.426;1.500;2023-04-01T06:33:13;11.90;99.90
62363;DHT22;48396;48.426;1.500;2023-04-01T06:41:20;11.90;99.90
62363;DHT22;48396;48.426;1.500;2023-04-01T06:44:06;12.00;99.90
62363;DHT22;48396;48.426;1.500;2023-04-01T06:52:22;12.00;99.90
62363;DHT22;48396;48.426;1.500;2023-04-01T06:54:55;12.00;99.90
62363;DHT22;48396;48.426;1.500;2023-04-01T06:59:57;12.00;99.90
62363;DHT22;48396;48.426;1.500;2023-04-01T07:04:58;12.00;99.90
62363;DHT22;48396;48.426;1.500;2023-04-01T07:10:15;12.00;99.90
62363;DHT22;48396;48.426;1.500;2023-04-01T07:12:52;12.00;99.90
62363;DHT22;48396;48.426;1.500;2023-04-01T07:15:24;12.00;99.90
62363;DHT22;48396;48.426;1.500;2023-04-01T07:17:57;12.10;99.90
62363;DHT22;48396;48.426;1.500;2023-04-01T07:20:27;12.00;99.90
62363;DHT22;48396;48.426;1.500;2023-04-01T07:22:58;11.90;99.90
62363;DHT22;48396;48.426;1.500;2023-04-01T07:25:34;11.90;99.90
62363;DHT22;48396;48.426;1.500;2023-04-01T07:28:04;11.90;99.90
62363;DHT22;48396;48.426;1.500;2023-04-01T07:33:39;11.90;99.90
62363;DHT22;48396;48.426;1.500;2023-04-01T07:36:13;11.90;99.90
62363;DHT22;48396;48.426;1.500;2023-04-01T07:39:15;11.90;99.90
62363;DHT22;48396;48.426;1.500;2023-04-01T07:47:54;12.00;99.90
62363;DHT22;48396;48.426;1.500;2023-04-01T07:50:02;12.10;99.90
62363;DHT22;48396;48.426;1.500;2023-04-01T07:52:53;12.10;99.90
62363;DHT22;48396;48.426;1.500;2023-04-01T07:55:30;12.20;99.90
62363;DHT22;48396;48.426;1.500;2023-04-01T08:03:38;12.20;99.90
62363;DHT22;48396;48.426;1.500;2023-04-01T08:06:24;12.20;99.90
62363;DHT22;48396;48.426;1.500;2023-04-01T08:09:25;12.30;99.90
62363;DHT22;48396;48.426;1.500;2023-04-01T08:20:39;12.30;99.90
62363;DHT22;48396;48.426;1.500;2023-04-01T08:23:12;12.20;99.90
62363;DHT22;48396;48.426;1.500;2023-04-01T08:25:49;12.20;99.90
62363;DHT22;48396;48.426;1.500;2023-04-01T08:31:22;12.30;99.90
62363;DHT22;48396;48.426;1.500;2023-04-01T08:33:53;12.40;99.90
62363;DHT22;48396;48.426;1.500;2023-04-01T08:36:32;12.40;99.90
62363;DHT22;48396;48.426;1.500;2023-04-01T08:39:15;12.50;99.90
62363;DHT22;48396;48.426;1.500;2023-04-01T08:42:00;12.60;99.90
62363;DHT22;48396;48.426;1.500;2023-04-01T08:53:37;12.70;99.90
62363;DHT22;48396;48.426;1.500;2023-04-01T08:56:23;12.70;99.90
62363;DHT22;48396;48.426;1.500;2023-04-01T09:06:37;12.50;99.90
62363;DHT22;48396;48.426;1.500;2023-04-01T09:11:55;12.60;99.90
62363;DHT22;48396;48.426;1.500;2023-04-01T09:25:59;12.80;99.90
62363;DHT22;48396;48.426;1.500;2023-04-01T09:45:34;12.90;99.90
62363;DHT22;48396;48.426;1.500;2023-04-01T09:48:33;12.90;99.90
62363;DHT22;48396;48.426;1.500;2023-04-01T10:16:45;13.10;99.90
62363;DHT22;48396;48.426;1.500;2023-04-01T10:27:49;13.30;99.90
62363;DHT22;48396;48.426;1.500;2023-04-01T10:36:33;13.60;99.90
62363;DHT22;48396;48.426;1.500;2023-04-01T10:39:29;13.70;99.90
62363;DHT22;48396;48.426;1.500;2023-04-01T11:09:39;13.70;98.60
62363;DHT22;48396;48.426;1.500;2023-04-01T11:15:20;13.40;99.30
62363;DHT22;48396;48.426;1.500;2023-04-01T11:17:57;13.10;99.50
62363;DHT22;48396;48.426;1.500;2023-04-01T11:31:55;13.30;99.90
62363;DHT22;48396;48.426;1.500;2023-04-01T11:34:47;13.30;99.90
62363;DHT22;48396;48.426;1.500;2023-04-01T11:43:06;13.60;99.90
62363;DHT22;48396;48.426;1.500;2023-04-01T11:45:58;13.60;99.90
62363;DHT22;48396;48.426;1.500;2023-04-01T12:10:42;14.20;99.90
62363;DHT22;48396;48.426;1.500;2023-04-01T12:13:16;14.20;99.70
62363;DHT22;48396;48.426;1.500;2023-04-01T12:18:53;14.10;99.10
62363;DHT22;48396;48.426;1.500;2023-04-01T12:21:43;14.10;99.10
62363;DHT22;48396;48.426;1.500;2023-04-01T12:35:08;14.30;99.60
62363;DHT22;48396;48.426;1.500;2023-04-01T12:37:48;14.30;99.00
62363;DHT22;48396;48.426;1.500;2023-04-01T12:43:27;14.40;98.50
62363;DHT22;48396;48.426;1.500;2023-04-01T12:46:13;14.50;98.70
62363;DHT22;48396;48.426;1.500;2023-04-01T12:59:49;14.90;97.70
62363;DHT22;48396;48.426;1.500;2023-04-01T13:13:41;15.10;98.00
62363;DHT22;48396;48.426;1.500;2023-04-01T13:27:02;15.50;96.90
62363;DHT22;48396;48.426;1.500;2023-04-01T13:29:53;15.60;96.60
62363;DHT22;48396;48.426;1.500;2023-04-01T13:35:23;15.50;95.70
62363;DHT22;48396;48.426;1.500;2023-04-01T13:43:43;15.50;95.60
62363;DHT22;48396;48.426;1.500;2023-04-01T13:52:12;15.30;95.10
62363;DHT22;48396;48.426;1.500;2023-04-01T13:55:10;15.30;95.40
62363;DHT22;48396;48.426;1.500;2023-04-01T14:06:11;14.50;96.60
62363;DHT22;48396;48.426;1.500;2023-04-01T14:16:26;14.00;97.30
62363;DHT22;48396;48.426;1.500;2023-04-01T14:19:20;14.00;97.30
62363;DHT22;48396;48.426;1.500;2023-04-01T14:32:48;14.40;97.00
62363;DHT22;48396;48.426;1.500;2023-04-01T14:35:38;14.50;97.00
62363;DHT22;48396;48.426;1.500;2023-04-01T14:49:24;14.70;97.00
62363;DHT22;48396;48.426;1.500;2023-04-01T14:51:56;14.80;97.30
62363;DHT22;48396;48.426;1.500;2023-04-01T14:54:36;14.80;97.00
62363;DHT22;48396;48.426;1.500;2023-04-01T14:57:29;14.90;97.00
62363;DHT22;48396;48.426;1.500;2023-04-01T15:00:12;15.00;97.00
62363;DHT22;48396;48.426;1.500;2023-04-01T15:25:19;15.30;96.70
62363;DHT22;48396;48.426;1.500;2023-04-01T15:28:49;15.30;96.70
62363;DHT22;48396;48.426;1.500;2023-04-01T15:31:01;15.30;96.70
62363;DHT22;48396;48.426;1.500;2023-04-01T15:36:41;15.10;96.00
62363;DHT22;48396;48.426;1.500;2023-04-01T15:49:56;15.30;95.70
62363;DHT22;48396;48.426;1.500;2023-04-01T15:55:24;15.40;95.40
62363;DHT22;48396;48.426;1.500;2023-04-01T16:03:15;15.70;95.30
62363;DHT22;48396;48.426;1.500;2023-04-01T16:06:01;15.70;94.50
62363;DHT22;48396;48.426;1.500;2023-04-01T16:11:14;16.00;93.50
62363;DHT22;48396;48.426;1.500;2023-04-01T16:21:52;16.00;92.00
62363;DHT22;48396;48.426;1.500;2023-04-01T16:24:33;16.10;92.10
62363;DHT22;48396;48.426;1.500;2023-04-01T16:27:12;16.10;92.00
62363;DHT22;48396;48.426;1.500;2023-04-01T16:30:00;16.10;92.00
62363;DHT22;48396;48.426;1.500;2023-04-01T16:32:49;16.10;92.00
62363;DHT22;48396;48.426;1.500;2023-04-01T16:38:07;16.20;92.20
62363;DHT22;48396;48.426;1.500;2023-04-01T16:40:45;16.00;91.70
62363;DHT22;48396;48.426;1.500;2023-04-01T16:43:35;15.80;92.00
62363;DHT22;48396;48.426;1.500;2023-04-01T16:49:29;15.40;92.60
62363;DHT22;48396;48.426;1.500;2023-04-01T16:55:01;15.50;92.90
62363;DHT22;48396;48.426;1.500;2023-04-01T17:00:47;15.50;93.10
62363;DHT22;48396;48.426;1.500;2023-04-01T17:03:30;15.50;92.90
62363;DHT22;48396;48.426;1.500;2023-04-01T17:06:03;15.50;92.90
62363;DHT22;48396;48.426;1.500;2023-04-01T17:11:27;15.50;92.90
62363;DHT22;48396;48.426;1.500;2023-04-01T17:19:54;16.00;92.80
62363;DHT22;48396;48.426;1.500;2023-04-01T17:22:33;16.10;92.70
62363;DHT22;48396;48.426;1.500;2023-04-01T17:39:52;16.80;91.90
62363;DHT22;48396;48.426;1.500;2023-04-01T17:42:34;16.80;92.10
62363;DHT22;48396;48.426;1.500;2023-04-01T17:45:10;17.10;92.30
62363;DHT22;48396;48.426;1.500;2023-04-01T17:47:41;17.40;92.20
62363;DHT22;48396;48.426;1.500;2023-04-01T17:50:20;17.50;91.60
62363;DHT22;48396;48.426;1.500;2023-04-01T17:53:05;17.30;90.80
62363;DHT22;48396;48.426;1.500;2023-04-01T17:55:46;16.90;90.90
62363;DHT22;48396;48.426;1.500;2023-04-01T17:58:20;16.60;91.00
62363;DHT22;48396;48.426;1.500;2023-04-01T18:03:53;16.00;91.40
62363;DHT22;48396;48.426;1.500;2023-04-01T18:06:21;15.80;91.70
62363;DHT22;48396;48.426;1.500;2023-04-01T18:09:04;15.70;91.90
62363;DHT22;48396;48.426;1.500;2023-04-01T18:11:45;15.50;92.10
62363;DHT22;48396;48.426;1.500;2023-04-01T18:14:35;15.40;92.40
62363;DHT22;48396;48.426;1.500;2023-04-01T18:25:42;15.10;92.90
62363;DHT22;48396;48.426;1.500;2023-04-01T18:29:02;15.10;93.10
62363;DHT22;48396;48.426;1.500;2023-04-01T18:31:24;15.10;93.40
62363;DHT22;48396;48.426;1.500;2023-04-01T18:39:02;14.90;93.30
62363;DHT22;48396;48.426;1.500;2023-04-01T18:41:34;14.80;93.40
62363;DHT22;48396;48.426;1.500;2023-04-01T18:44:12;14.90;93.50
62363;DHT22;48396;48.426;1.500;2023-04-01T18:49:21;14.80;93.40
62363;DHT22;48396;48.426;1.500;2023-04-01T18:51:55;14.70;93.50
62363;DHT22;48396;48.426;1.500;2023-04-01T18:57:14;14.70;93.60
62363;DHT22;48396;48.426;1.500;2023-04-01T19:02:33;14.70;93.70
62363;DHT22;48396;48.426;1.500;2023-04-01T19:05:07;14.60;93.60
62363;DHT22;48396;48.426;1.500;2023-04-01T19:26:33;14.50;94.10
62363;DHT22;48396;48.426;1.500;2023-04-01T19:35:03;14.40;94.30
62363;DHT22;48396;48.426;1.500;2023-04-01T19:40:28;14.50;94.30
62363;DHT22;48396;48.426;1.500;2023-04-01T19:43:13;14.50;94.40
62363;DHT22;48396;48.426;1.500;2023-04-01T19:46:06;14.50;94.40
62363;DHT22;48396;48.426;1.500;2023-04-01T19:48:51;14.60;94.40
62363;DHT22;48396;48.426;1.500;2023-04-01T19:51:33;14.60;94.60
62363;DHT22;48396;48.426;1.500;2023-04-01T19:57:34;14.50;94.70
62363;DHT22;48396;48.426;1.500;2023-04-01T20:00:15;14.40;95.10
62363;DHT22;48396;48.426;1.500;2023-04-01T20:05:31;14.20;95.50
62363;DHT22;48396;48.426;1.500;2023-04-01T20:19:57;14.20;96.20
62363;DHT22;48396;48.426;1.500;2023-04-01T20:24:59;14.20;96.20
62363;DHT22;48396;48.426;1.500;2023-04-01T20:27:33;14.10;96.40
62363;DHT22;48396;48.426;1.500;2023-04-01T20:35:50;14.10;96.50
62363;DHT22;48396;48.426;1.500;2023-04-01T20:44:11;13.90;97.10
62363;DHT22;48396;48.426;1.500;2023-04-01T20:47:01;13.90;97.20
62363;DHT22;48396;48.426;1.500;2023-04-01T20:49:40;13.90;97.30
62363;DHT22;48396;48.426;1.500;2023-04-01T20:57:14;14.00;97.40
62363;DHT22;48396;48.426;1.500;2023-04-01T21:02:48;14.00;97.40
62363;DHT22;48396;48.426;1.500;2023-04-01T21:08:02;14.00;97.40
62363;DHT22;48396;48.426;1.500;2023-04-01T21:18:50;14.00;97.60
62363;DHT22;48396;48.426;1.500;2023-04-01T21:22:11;13.90;97.60
62363;DHT22;48396;48.426;1.500;2023-04-01T21:38:43;13.80;97.80
62363;DHT22;48396;48.426;1.500;2023-04-01T21:41:18;13.80;97.90
62363;DHT22;48396;48.426;1.500;2023-04-01T21:52:38;13.80;97.90
62363;DHT22;48396;48.426;1.500;2023-04-01T21:58:49;13.80;97.80
62363;DHT22;48396;48.426;1.500;2023-04-01T22:06:50;13.70;98.00
62363;DHT22;48396;48.426;1.500;2023-04-01T22:09:36;13.70;98.00
62363;DHT22;48396;48.426;1.500;2023-04-01T22:29:31;13.60;98.20
62363;DHT22;48396;48.426;1.500;2023-04-01T22:36:59;13.60;98.20
62363;DHT22;48396;48.426;1.500;2023-04-01T22:39:50;13.60;98.10
62363;DHT22;48396;48.426;1.500;2023-04-01T22:42:40;13.60;98.10
62363;DHT22;48396;48.426;1.500;2023-04-01T22:55:40;13.50;98.10
62363;DHT22;48396;48.426;1.500;2023-04-01T22:58:14;13.40;98.20
62363;DHT22;48396;48.426;1.500;2023-04-01T23:00:50;13.40;98.20
62363;DHT22;48396;48.426;1.500;2023-04-01T23:03:21;13.50;98.20
62363;DHT22;48396;48.426;1.500;2023-04-01T23:05:51;13.50;98.20
62363;DHT22;48396;48.426;1.500;2023-04-01T23:12:09;13.50;98.20
62363;DHT22;48396;48.426;1.500;2023-04-01T23:17:41;13.40;98.40
62363;DHT22;48396;48.426;1.500;2023-04-01T23:27:39;13.20;98.70
62363;DHT22;48396;48.426;1.500;2023-04-01T23:36:10;13.40;98.60
62363;DHT22;48396;48.426;1.500;2023-04-01T23:38:38;13.30;98.50
62363;DHT22;48396;48.426;1.500;2023-04-01T23:41:07;13.30;98.70
62363;DHT22;48396;48.426;1.500;2023-04-01T23:43:37;13.30;98.60
62363;DHT22;48396;48.426;1.500;2023-04-01T23:46:06;13.30;98.70
62363;DHT22;48396;48.426;1.500;2023-04-01T23:48:44;13.20;98.70
62363;DHT22;48396;48.426;1.500;2023-04-01T23:51:22;13.20;98.80
62363;DHT22;48396;48.426;1.500;2023-04-01T23:54:17;13.20;98.90
62363;DHT22;48396;48.426;1.500;2023-04-01T23:56:44;13.20;98.90
62363;DHT22;48396;48.426;1.500;2023-04-01T23:59:16;13.20;98.90
